Time;durP1;ratioP1;P1;durP2;ratioP2;P2;SDS_P1;SDS_P2;PMS_P1;PMS_P2;Temp;Humidity;BMP_temperature;BMP_pressure;BME280_temperature;BME280_humidity;BME280_pressure;Samples;Min_cycle;Max_cycle;Signal;HPM_P1;HPM_P2
2021/10/21 00:03:19;;;;;;;7.85;3.17;;;14.20;99.90;;;;;;12307505;28;20134;-83
2021/10/21 00:09:20;;;;;;;6.93;3.08;;;14.40;99.90;;;;;;12302270;28;20058;-81
2021/10/21 00:15:22;;;;;;;5.70;3.13;;;14.40;99.90;;;;;;12308769;28;20132;-82
2021/10/21 00:21:24;;;;;;;5.47;2.95;;;14.50;99.90;;;;;;12301997;28;20043;-83
2021/10/21 00:27:26;;;;;;;6.88;3.15;;;14.70;99.90;;;;;;12308245;28;20211;-83
2021/10/21 00:33:28;;;;;;;5.18;3.10;;;14.80;99.90;;;;;;12304759;28;20046;-83
2021/10/21 00:39:30;;;;;;;6.65;3.67;;;14.90;99.90;;;;;;12307773;28;20161;-84
2021/10/21 00:45:32;;;;;;;8.50;2.95;;;15.00;99.90;;;;;;12303784;28;20050;-82
2021/10/21 00:51:36;;;;;;;4.30;2.47;;;15.00;99.90;;;;;;12312341;28;20047;-84
2021/10/21 00:57:38;;;;;;;5.93;2.60;;;15.00;99.90;;;;;;12313041;28;20742;-84
2021/10/21 01:03:39;;;;;;;5.72;2.60;;;15.10;99.90;;;;;;12305745;28;20813;-84
2021/10/21 01:09:44;;;;;;;4.43;2.33;;;15.20;99.90;;;;;;12301589;28;20043;-82
2021/10/21 01:15:46;;;;;;;4.78;2.55;;;15.20;99.90;;;;;;12337975;28;20519;-83
2021/10/21 01:21:50;;;;;;;6.13;2.25;;;15.20;99.90;;;;;;12304647;28;20478;-83
2021/10/21 01:27:52;;;;;;;;;;;15.20;99.90;;;;;;12310632;28;20326;-84
2021/10/21 01:33:54;;;;;;;5.88;2.33;;;15.30;99.90;;;;;;12297008;28;19930;-84
2021/10/21 01:39:56;;;;;;;7.50;2.72;;;15.30;99.90;;;;;;12300327;28;20051;-84
2021/10/21 01:45:58;;;;;;;12.18;3.00;;;15.30;99.90;;;;;;12297821;28;20105;-85
2021/10/21 01:52:00;;;;;;;7.80;3.15;;;14.80;99.90;;;;;;12300373;28;20058;-87
2021/10/21 01:58:02;;;;;;;9.30;3.25;;;14.50;99.90;;;;;;12307843;28;20503;-86
2021/10/21 02:04:04;;;;;;;5.75;2.92;;;14.30;99.90;;;;;;12297618;28;20606;-85
2021/10/21 02:10:11;;;;;;;6.10;2.80;;;14.20;99.90;;;;;;12304860;28;20073;-84
2021/10/21 02:16:15;;;;;;;7.13;2.40;;;14.10;99.90;;;;;;12331004;28;20053;-85
2021/10/21 02:22:17;;;;;;;6.88;2.40;;;14.00;99.90;;;;;;12296216;28;20487;-85
2021/10/21 02:28:19;;;;;;;7.32;2.65;;;13.90;99.90;;;;;;12311240;28;20171;-85
2021/10/21 02:34:20;;;;;;;4.60;2.25;;;13.90;99.90;;;;;;12301464;28;20105;-85
2021/10/21 02:40:22;;;;;;;5.28;2.47;;;13.80;99.90;;;;;;12294781;28;20180;-85
2021/10/21 02:46:24;;;;;;;4.07;2.28;;;13.80;99.90;;;;;;12298754;28;20054;-84
2021/10/21 02:52:26;;;;;;;4.78;2.38;;;14.00;99.90;;;;;;12305218;28;21052;-85
2021/10/21 02:58:28;;;;;;;4.25;1.77;;;14.10;99.90;;;;;;12300737;28;20142;-82
2021/10/21 03:04:31;;;;;;;2.47;1.50;;;14.30;99.90;;;;;;12301797;28;20533;-83
2021/10/21 03:10:33;;;;;;;3.63;1.40;;;14.40;99.90;;;;;;12308711;28;20050;-84
2021/10/21 03:16:35;;;;;;;2.08;1.30;;;14.40;99.90;;;;;;12310448;28;20078;-83
2021/10/21 03:22:37;;;;;;;3.17;1.38;;;14.40;99.90;;;;;;12313773;28;20039;-83
2021/10/21 03:28:39;;;;;;;2.58;1.13;;;14.40;99.90;;;;;;12311459;28;20054;-86
2021/10/21 03:34:41;;;;;;;4.13;1.42;;;14.40;99.90;;;;;;12302638;28;20073;-83
2021/10/21 03:40:43;;;;;;;2.70;0.98;;;14.40;99.90;;;;;;12342760;28;20054;-83
2021/10/21 03:46:45;;;;;;;8.48;1.30;;;14.20;99.90;;;;;;12302550;28;20106;-83
2021/10/21 03:52:47;;;;;;;4.45;1.00;;;13.60;99.90;;;;;;12305944;28;20574;-84
2021/10/21 03:58:49;;;;;;;4.15;0.90;;;12.70;99.90;;;;;;12303855;28;20137;-88
2021/10/21 04:04:50;;;;;;;4.75;1.40;;;12.30;99.90;;;;;;12306770;28;20102;-85
2021/10/21 04:10:52;;;;;;;4.50;0.98;;;12.30;99.90;;;;;;12302241;28;20467;-83
2021/10/21 04:16:54;;;;;;;4.68;0.93;;;12.30;99.90;;;;;;12303190;28;20050;-84
2021/10/21 04:22:56;;;;;;;3.50;0.85;;;12.10;99.90;;;;;;12306529;28;20061;-84
2021/10/21 04:28:58;;;;;;;4.38;0.90;;;12.10;99.90;;;;;;12305376;28;20330;-84
2021/10/21 04:35:00;;;;;;;4.35;0.70;;;12.20;99.90;;;;;;12334511;28;20419;-85
2021/10/21 04:41:02;;;;;;;5.90;0.93;;;12.20;99.90;;;;;;12307667;28;20134;-85
2021/10/21 04:47:04;;;;;;;4.50;0.85;;;12.00;99.90;;;;;;12297377;28;20134;-84
2021/10/21 04:53:06;;;;;;;3.97;0.70;;;12.00;99.90;;;;;;12293944;28;20097;-83
2021/10/21 04:59:09;;;;;;;9.13;0.80;;;12.10;99.90;;;;;;12317867;28;20058;-84
2021/10/21 05:05:12;;;;;;;5.45;1.80;;;12.10;99.90;;;;;;12304218;28;20501;-84
2021/10/21 05:11:14;;;;;;;3.75;0.68;;;12.20;99.90;;;;;;12302020;28;20511;-84
2021/10/21 05:17:16;;;;;;;4.68;0.75;;;12.20;99.90;;;;;;12301685;28;20055;-84
2021/10/21 05:23:19;;;;;;;6.53;0.70;;;12.10;99.90;;;;;;12299948;28;20515;-83
2021/10/21 05:29:22;;;;;;;4.90;0.70;;;12.00;99.90;;;;;;12329791;28;20054;-83
2021/10/21 05:35:24;;;;;;;3.43;0.70;;;12.00;99.90;;;;;;12327619;28;20166;-84
2021/10/21 05:41:26;;;;;;;6.10;0.73;;;12.00;99.90;;;;;;12299760;28;20313;-82
2021/10/21 05:47:28;;;;;;;4.88;0.70;;;11.90;99.90;;;;;;12303992;28;20076;-83
2021/10/21 05:53:30;;;;;;;3.10;0.60;;;11.90;99.90;;;;;;12297963;28;20055;-84
2021/10/21 05:59:32;;;;;;;8.38;0.80;;;11.70;99.90;;;;;;12296556;28;20058;-85
2021/10/21 06:05:35;;;;;;;2.85;0.70;;;11.50;99.90;;;;;;12329501;28;20481;-83
2021/10/21 06:11:37;;;;;;;2.63;0.57;;;11.40;99.90;;;;;;12298434;28;20057;-84
2021/10/21 06:17:41;;;;;;;4.57;0.63;;;11.20;99.90;;;;;;12297541;28;20047;-84
2021/10/21 06:23:43;;;;;;;3.25;0.65;;;11.20;99.90;;;;;;12296209;28;20447;-85
2021/10/21 06:29:45;;;;;;;4.35;0.60;;;11.10;99.90;;;;;;12301644;28;20082;-84
2021/10/21 06:35:47;;;;;;;2.72;0.50;;;11.10;99.90;;;;;;12290840;28;20039;-82
2021/10/21 06:41:49;;;;;;;3.60;0.60;;;11.10;99.90;;;;;;12315257;28;20181;-84
2021/10/21 06:47:51;;;;;;;2.70;0.47;;;11.00;99.90;;;;;;12315360;28;20424;-84
2021/10/21 06:53:53;;;;;;;1.30;0.50;;;11.00;99.90;;;;;;12308663;28;20054;-84
2021/10/21 06:59:55;;;;;;;3.05;0.55;;;11.00;99.90;;;;;;12293125;28;20134;-85
2021/10/21 07:06:01;;;;;;;3.63;0.70;;;11.00;99.90;;;;;;12311631;28;20046;-84
2021/10/21 07:12:03;;;;;;;3.78;1.10;;;11.00;99.90;;;;;;12310470;28;20070;-82
2021/10/21 07:18:08;;;;;;;1.77;0.80;;;11.00;99.90;;;;;;12305360;28;20062;-82
2021/10/21 07:24:10;;;;;;;3.42;0.68;;;11.00;99.90;;;;;;12318970;28;20558;-83
2021/10/21 07:30:13;;;;;;;3.47;0.80;;;11.20;99.90;;;;;;12309805;28;20094;-83
2021/10/21 07:36:17;;;;;;;4.93;1.27;;;11.20;99.90;;;;;;12310897;28;20507;-84
2021/10/21 07:42:19;;;;;;;3.13;1.20;;;11.20;99.90;;;;;;12310376;28;20784;-86
2021/10/21 07:48:21;;;;;;;4.60;0.63;;;11.10;99.90;;;;;;12309392;28;20144;-90
2021/10/21 07:54:26;;;;;;;4.38;0.65;;;10.40;99.90;;;;;;12299989;28;20190;-86
2021/10/21 08:00:28;;;;;;;0.60;0.20;;;9.80;99.90;;;;;;12306092;28;20043;-87
2021/10/21 08:06:33;;;;;;;2.65;0.30;;;9.60;99.90;;;;;;12309996;28;20090;-87
2021/10/21 08:12:35;;;;;;;2.13;0.30;;;9.50;99.90;;;;;;12302435;28;20509;-87
2021/10/21 08:18:37;;;;;;;2.70;0.50;;;9.50;99.90;;;;;;12307237;28;20081;-86
2021/10/21 08:24:39;;;;;;;2.35;0.40;;;9.60;99.90;;;;;;12294763;28;20046;-87
2021/10/21 08:30:43;;;;;;;1.00;0.50;;;9.70;99.90;;;;;;12283790;28;20054;-87
2021/10/21 08:36:45;;;;;;;1.38;0.40;;;9.70;99.90;;;;;;12301569;28;20100;-88
2021/10/21 08:42:47;;;;;;;1.05;0.60;;;9.60;99.90;;;;;;12297405;28;20109;-86
2021/10/21 08:48:58;;;;;;;1.08;0.57;;;9.70;99.90;;;;;;12307796;28;20466;-88
2021/10/21 08:55:00;;;;;;;1.88;0.77;;;9.70;99.90;;;;;;12308464;28;20141;-86
2021/10/21 09:01:11;;;;;;;2.88;0.50;;;9.80;99.90;;;;;;12297105;28;20538;-85
2021/10/21 09:13:23;;;;;;;4.30;0.95;;;9.90;99.90;;;;;;12301336;28;20534;-86
2021/10/21 09:19:27;;;;;;;5.22;0.60;;;9.90;99.90;;;;;;12299681;28;20105;-89
2021/10/21 09:25:39;;;;;;;2.00;0.60;;;9.80;99.90;;;;;;12305125;28;20549;-85
2021/10/21 09:31:41;;;;;;;3.05;1.08;;;10.00;99.90;;;;;;12306315;28;20154;-88
2021/10/21 09:37:44;;;;;;;6.40;0.93;;;10.20;99.90;;;;;;12297579;28;20066;-86
2021/10/21 09:43:46;;;;;;;6.20;1.00;;;10.20;99.90;;;;;;12296661;28;20076;-87
2021/10/21 09:49:55;;;;;;;8.15;1.50;;;10.40;99.90;;;;;;12335218;28;20124;-88
2021/10/21 09:56:05;;;;;;;8.80;1.25;;;10.50;99.90;;;;;;12299440;28;20094;-87
2021/10/21 10:02:11;;;;;;;5.25;1.60;;;10.60;99.90;;;;;;12303130;28;20276;-87
2021/10/21 10:08:18;;;;;;;6.03;1.90;;;10.60;99.90;;;;;;12297944;28;20530;-86
2021/10/21 10:14:20;;;;;;;10.20;1.73;;;10.60;99.90;;;;;;12293783;28;20062;-88
2021/10/21 10:20:29;;;;;;;11.65;1.90;;;10.60;99.90;;;;;;12294135;28;20065;-85
2021/10/21 10:26:57;;;;;;;7.32;1.58;;;10.70;99.90;;;;;;12298727;28;20054;-87
2021/10/21 10:33:01;;;;;;;5.03;1.40;;;10.80;99.90;;;;;;12322706;28;20145;-87
2021/10/21 10:39:06;;;;;;;9.77;1.50;;;10.70;99.90;;;;;;12302356;28;20061;-86
2021/10/21 10:45:12;;;;;;;6.95;1.52;;;10.50;99.90;;;;;;12322313;28;20134;-87
2021/10/21 10:51:14;;;;;;;13.43;2.53;;;10.50;99.90;;;;;;12296729;28;20055;-86
2021/10/21 10:57:31;;;;;;;10.20;1.48;;;10.30;99.90;;;;;;12299405;28;20153;-86
2021/10/21 11:03:34;;;;;;;7.75;1.50;;;10.00;99.90;;;;;;12288549;28;20519;-86
2021/10/21 11:09:36;;;;;;;11.93;1.85;;;9.70;99.90;;;;;;12311795;28;20492;-88
2021/10/21 11:15:38;;;;;;;9.43;1.85;;;9.70;99.90;;;;;;12299794;28;20053;-87
2021/10/21 11:21:54;;;;;;;12.75;2.65;;;10.10;99.90;;;;;;12298218;28;20053;-89
2021/10/21 11:27:57;;;;;;;12.15;1.75;;;10.30;99.90;;;;;;12289262;28;20576;-84
2021/10/21 11:34:00;;;;;;;6.80;1.38;;;10.40;99.90;;;;;;12299316;28;20507;-89
2021/10/21 11:40:34;;;;;;;4.22;1.20;;;10.50;99.90;;;;;;12304342;28;20518;-88
2021/10/21 11:46:36;;;;;;;5.72;0.70;;;10.60;99.90;;;;;;12313915;28;20085;-86
2021/10/21 11:52:41;;;;;;;4.45;1.00;;;10.60;99.90;;;;;;12304828;28;20046;-86
2021/10/21 11:58:45;;;;;;;5.38;0.90;;;10.40;99.90;;;;;;12346706;28;20055;-88
2021/10/21 12:04:47;;;;;;;5.72;0.85;;;10.30;99.90;;;;;;12302081;28;20046;-87
2021/10/21 12:10:57;;;;;;;5.72;1.13;;;10.10;99.90;;;;;;12301682;28;20047;-87
2021/10/21 12:16:59;;;;;;;7.63;0.93;;;9.90;99.90;;;;;;12296394;28;20161;-86
2021/10/21 12:23:09;;;;;;;2.60;0.98;;;9.80;99.90;;;;;;12305901;28;20047;-86
2021/10/21 12:29:11;;;;;;;2.40;0.90;;;10.00;99.90;;;;;;12305561;28;20483;-85
2021/10/21 12:35:15;;;;;;;5.07;1.10;;;10.10;99.90;;;;;;12294824;28;20054;-86
2021/10/21 12:41:17;;;;;;;5.43;1.40;;;10.00;99.90;;;;;;12300078;28;20074;-87
2021/10/21 12:47:22;;;;;;;8.18;2.00;;;10.00;99.90;;;;;;12332011;28;20645;-86
2021/10/21 12:53:24;;;;;;;5.55;1.38;;;10.00;99.90;;;;;;12302408;28;20074;-84
2021/10/21 12:59:31;;;;;;;4.20;1.20;;;10.00;99.90;;;;;;12310599;28;20047;-84
2021/10/21 13:05:34;;;;;;;5.97;1.30;;;10.20;99.90;;;;;;12333748;28;20046;-85
2021/10/21 13:11:36;;;;;;;4.43;1.05;;;10.20;99.90;;;;;;12339577;28;20066;-85
2021/10/21 13:17:38;;;;;;;9.88;1.20;;;10.20;99.90;;;;;;12312535;28;20055;-85
2021/10/21 13:23:41;;;;;;;4.55;1.17;;;10.30;99.90;;;;;;12296090;28;20653;-84
2021/10/21 13:29:42;;;;;;;2.35;0.65;;;10.40;99.90;;;;;;12302492;28;20719;-87
2021/10/21 13:35:45;;;;;;;4.00;0.50;;;9.90;99.90;;;;;;12307491;28;20093;-89
2021/10/21 13:41:47;;;;;;;3.10;0.60;;;8.40;99.90;;;;;;12305705;28;20101;-87
2021/10/21 13:47:48;;;;;;;1.08;0.40;;;8.00;99.90;;;;;;12297129;28;20055;-87
2021/10/21 13:53:50;;;;;;;0.60;0.30;;;8.00;99.90;;;;;;12306764;28;21005;-86
2021/10/21 13:59:54;;;;;;;1.67;0.40;;;8.00;99.90;;;;;;12302732;28;20082;-86
2021/10/21 14:05:56;;;;;;;1.52;0.40;;;8.20;99.90;;;;;;12302981;28;20050;-87
2021/10/21 14:11:58;;;;;;;2.60;0.68;;;8.30;99.90;;;;;;12303948;28;20047;-89
2021/10/21 14:18:00;;;;;;;7.32;0.70;;;8.40;99.90;;;;;;12298613;28;20047;-87
2021/10/21 14:24:02;;;;;;;4.13;0.70;;;8.50;99.90;;;;;;12339414;28;20482;-86
2021/10/21 14:30:06;;;;;;;2.72;0.70;;;8.50;99.90;;;;;;12300970;28;20161;-86
2021/10/21 14:36:10;;;;;;;3.97;0.80;;;8.50;99.90;;;;;;12308552;28;20134;-87
2021/10/21 14:42:12;;;;;;;3.60;0.90;;;8.40;99.90;;;;;;12320535;28;20073;-85
2021/10/21 14:48:14;;;;;;;4.45;0.90;;;8.50;99.90;;;;;;12301428;28;20050;-85
2021/10/21 14:54:16;;;;;;;6.25;1.60;;;8.30;99.90;;;;;;12300487;28;20332;-87
2021/10/21 15:00:18;;;;;;;3.53;0.70;;;8.30;99.90;;;;;;12298171;28;20150;-86
2021/10/21 15:25:07;;;;;;;3.50;0.40;;;8.30;99.90;;;;;;12288128;28;20056;-88
2021/10/21 15:31:09;;;;;;;4.75;0.70;;;8.30;99.90;;;;;;12309002;28;20047;-88
2021/10/21 15:37:11;;;;;;;2.92;0.68;;;8.30;99.90;;;;;;12311520;28;20043;-86
2021/10/21 15:43:21;;;;;;;3.95;0.88;;;8.30;99.90;;;;;;12302807;28;20055;-88
2021/10/21 16:15:01;;;;;;;5.15;1.10;;;8.20;99.90;;;;;;12301496;28;20046;-87
2021/10/21 16:21:05;;;;;;;6.47;1.10;;;8.10;99.90;;;;;;12302603;28;20089;-87
2021/10/21 16:33:18;;;;;;;6.30;0.95;;;8.00;99.90;;;;;;12317847;28;20370;-87
2021/10/21 16:39:20;;;;;;;5.03;1.20;;;8.10;99.90;;;;;;12336793;28;20422;-87
2021/10/21 16:45:22;;;;;;;9.07;1.85;;;8.00;99.90;;;;;;12303418;28;20053;-88
2021/10/21 16:51:27;;;;;;;5.68;1.20;;;8.00;99.90;;;;;;12305431;28;20508;-87
2021/10/21 16:57:29;;;;;;;8.60;1.17;;;8.10;99.90;;;;;;12340325;28;20061;-88
2021/10/21 17:03:32;;;;;;;6.60;1.63;;;8.10;99.90;;;;;;12303741;28;20562;-88
2021/10/21 17:09:34;;;;;;;9.23;1.67;;;8.00;99.90;;;;;;12335990;28;20063;-88
2021/10/21 17:15:38;;;;;;;8.03;1.43;;;8.00;99.90;;;;;;12305306;28;20089;-88
2021/10/21 17:21:40;;;;;;;13.02;2.03;;;8.00;99.90;;;;;;12302468;28;20385;-89
2021/10/21 17:27:42;;;;;;;12.07;1.85;;;7.90;99.90;;;;;;12297582;28;20499;-86
2021/10/21 17:33:44;;;;;;;9.73;1.50;;;7.90;99.90;;;;;;12304429;28;20494;-87
2021/10/21 17:39:46;;;;;;;12.82;2.65;;;7.80;99.90;;;;;;12303791;28;20046;-87
2021/10/21 17:45:48;;;;;;;10.15;1.80;;;7.70;99.90;;;;;;12303295;28;20105;-86
2021/10/21 17:51:50;;;;;;;8.00;2.15;;;7.60;99.90;;;;;;12301893;28;20058;-88
2021/10/21 17:57:52;;;;;;;10.85;2.22;;;7.60;99.90;;;;;;12303087;28;20058;-88
2021/10/21 18:03:54;;;;;;;8.95;1.60;;;7.50;99.90;;;;;;12300645;28;20149;-88
2021/10/21 18:09:56;;;;;;;10.95;2.28;;;7.50;99.90;;;;;;12295997;28;20058;-88
2021/10/21 18:15:58;;;;;;;11.95;2.25;;;7.30;99.90;;;;;;12332153;28;20127;-88
2021/10/21 18:22:01;;;;;;;12.93;1.90;;;7.40;99.90;;;;;;12299206;28;20117;-88
2021/10/21 18:28:04;;;;;;;11.33;2.23;;;7.30;99.90;;;;;;12301213;28;20089;-88
2021/10/21 18:34:09;;;;;;;13.70;2.22;;;7.40;99.90;;;;;;12336434;28;20515;-89
2021/10/21 18:40:11;;;;;;;18.58;2.58;;;7.30;99.90;;;;;;12311743;28;20162;-88
2021/10/21 18:46:14;;;;;;;12.93;2.30;;;7.30;99.90;;;;;;12321035;28;20587;-87
2021/10/21 18:52:18;;;;;;;21.73;3.30;;;7.40;99.90;;;;;;12314163;28;20133;-87
2021/10/21 18:58:20;;;;;;;24.67;3.63;;;7.40;99.90;;;;;;12320393;28;20129;-88
2021/10/21 19:04:23;;;;;;;13.15;2.38;;;7.40;99.90;;;;;;12336461;28;20051;-88
2021/10/21 19:10:24;;;;;;;19.88;2.83;;;7.40;99.90;;;;;;12354357;28;20125;-86
2021/10/21 19:16:29;;;;;;;25.30;3.22;;;7.30;99.90;;;;;;12318226;28;20131;-87
2021/10/21 19:22:31;;;;;;;13.98;2.65;;;7.20;99.90;;;;;;12316493;28;20154;-87
2021/10/21 19:28:32;;;;;;;14.68;2.70;;;7.20;99.90;;;;;;12321835;28;20069;-87
2021/10/21 19:34:34;;;;;;;19.27;2.92;;;7.20;99.90;;;;;;12321743;28;20093;-87
2021/10/21 19:40:36;;;;;;;14.45;2.35;;;7.20;99.90;;;;;;12317104;28;20046;-88
2021/10/21 19:46:38;;;;;;;15.05;2.17;;;7.20;99.90;;;;;;12315432;28;20062;-88
2021/10/21 19:52:41;;;;;;;11.60;1.98;;;7.30;99.90;;;;;;12311821;28;20101;-87
2021/10/21 19:58:43;;;;;;;13.63;2.03;;;7.20;99.90;;;;;;12311165;28;20054;-86
2021/10/21 20:04:45;;;;;;;14.10;2.22;;;7.20;99.90;;;;;;12342328;28;20091;-87
2021/10/21 20:10:46;;;;;;;11.45;2.22;;;7.10;99.90;;;;;;12307611;28;20078;-86
2021/10/21 20:16:48;;;;;;;15.60;2.15;;;7.10;99.90;;;;;;12310687;28;20130;-88
2021/10/21 20:22:51;;;;;;;11.70;2.05;;;7.00;99.90;;;;;;12309424;28;20150;-87
2021/10/21 20:28:52;;;;;;;14.77;2.50;;;6.90;99.90;;;;;;12302871;28;20496;-87
2021/10/21 20:34:55;;;;;;;9.57;2.13;;;6.80;99.90;;;;;;12307310;28;20046;-88
2021/10/21 20:40:58;;;;;;;14.23;2.50;;;6.80;99.90;;;;;;12305423;28;20438;-87
2021/10/21 20:47:00;;;;;;;13.65;2.45;;;6.70;99.90;;;;;;12309378;28;20063;-87
2021/10/21 20:53:02;;;;;;;14.43;2.58;;;6.70;99.90;;;;;;12312313;28;20043;-86
2021/10/21 20:59:03;;;;;;;10.75;1.98;;;6.60;99.90;;;;;;12317317;28;20082;-87
2021/10/21 21:05:06;;;;;;;13.93;2.55;;;6.80;99.90;;;;;;12318459;28;20096;-86
2021/10/21 21:11:09;;;;;;;14.63;2.30;;;6.80;99.90;;;;;;12346577;28;20155;-88
2021/10/21 21:17:11;;;;;;;15.05;2.67;;;6.80;99.90;;;;;;12349906;28;20681;-88
2021/10/21 21:23:12;;;;;;;17.27;2.67;;;6.80;99.90;;;;;;12307888;28;20599;-88
2021/10/21 21:29:14;;;;;;;9.02;2.05;;;6.80;99.90;;;;;;12311460;28;20287;-88
2021/10/21 21:35:17;;;;;;;11.63;2.28;;;6.80;99.90;;;;;;12306344;28;20126;-87
2021/10/21 21:41:19;;;;;;;12.65;1.90;;;6.70;99.90;;;;;;12307762;28;20053;-87
2021/10/21 21:47:21;;;;;;;5.32;1.40;;;6.60;99.90;;;;;;12302349;28;20529;-86
2021/10/21 21:53:24;;;;;;;10.38;2.00;;;6.70;99.90;;;;;;12308683;28;20043;-87
2021/10/21 21:59:26;;;;;;;11.15;1.92;;;6.70;99.90;;;;;;12303508;28;20051;-86
2021/10/21 22:05:28;;;;;;;12.02;1.80;;;6.70;99.90;;;;;;12307310;28;20849;-86
2021/10/21 22:11:30;;;;;;;11.95;1.80;;;6.60;99.90;;;;;;12302350;28;20043;-86
2021/10/21 22:17:35;;;;;;;11.73;1.75;;;6.50;99.90;;;;;;12305258;28;20568;-87
2021/10/21 22:23:37;;;;;;;13.85;2.17;;;6.50;99.90;;;;;;12335725;28;20057;-87
2021/10/21 22:29:39;;;;;;;10.80;1.77;;;6.50;99.90;;;;;;12305534;28;20145;-87
2021/10/21 22:35:42;;;;;;;12.68;2.60;;;6.50;99.90;;;;;;12302038;28;20044;-87
2021/10/21 22:41:44;;;;;;;14.00;2.17;;;6.40;99.90;;;;;;12298913;28;22495;-87
2021/10/21 22:47:47;;;;;;;13.80;2.03;;;6.40;99.90;;;;;;12304895;28;20066;-87
2021/10/21 22:53:49;;;;;;;14.85;1.95;;;6.40;99.90;;;;;;12300743;28;20046;-88
2021/10/21 22:59:54;;;;;;;10.35;1.65;;;6.30;99.90;;;;;;12304973;28;20077;-87
2021/10/21 23:05:58;;;;;;;15.75;2.30;;;6.30;99.90;;;;;;12301788;28;20133;-87
2021/10/21 23:11:59;;;;;;;19.40;2.80;;;6.30;99.90;;;;;;12306367;28;20126;-87
2021/10/21 23:18:03;;;;;;;13.45;2.05;;;6.10;99.90;;;;;;12305423;28;20085;-86
2021/10/21 23:24:05;;;;;;;16.75;2.22;;;6.20;99.90;;;;;;12311639;28;20630;-87
2021/10/21 23:30:07;;;;;;;13.00;1.95;;;6.10;99.90;;;;;;12327235;28;20055;-87
2021/10/21 23:36:10;;;;;;;11.25;2.28;;;6.20;99.90;;;;;;12311627;28;20054;-88
2021/10/21 23:42:12;;;;;;;10.07;1.73;;;6.00;99.90;;;;;;12307681;28;20050;-87
2021/10/21 23:48:14;;;;;;;9.13;1.67;;;6.20;99.90;;;;;;12312558;28;20124;-87
2021/10/21 23:54:17;;;;;;;8.43;1.67;;;6.10;99.90;;;;;;12302349;28;20050;-86
